Time;durP1;ratioP1;P1;durP2;ratioP2;P2;SDS_P1;SDS_P2;PMS_P1;PMS_P2;Temp;Humidity;BMP_temperature;BMP_pressure;BME280_temperature;BME280_humidity;BME280_pressure;Samples;Min_cycle;Max_cycle;Signal;HPM_P1;HPM_P2
2021/06/11 00:01:47;;;;;;;33.15;21.70;;;;;;;;;;2332226;24;20510;-87
2021/06/11 00:03:16;;;;;;;36.07;20.73;;;;;;;;;;2203178;24;20552;31
2021/06/11 00:09:43;;;;;;;30.27;20.58;;;;;;;;;;1832701;23;20436;-85
2021/06/11 00:10:50;;;;;;;36.10;21.92;;;;;;;;;;2320505;24;20504;-86
2021/06/11 00:11:51;;;;;;;34.72;22.08;;;;;;;;;;1441729;41;20449;-88
2021/06/11 00:12:53;;;;;;;39.15;23.08;;;;;;;;;;1442832;41;20419;-91
2021/06/11 00:13:57;;;;;;;34.63;21.88;;;;;;;;;;1439269;41;20416;-89
2021/06/11 00:15:02;;;;;;;35.83;22.88;;;;;;;;;;1442258;41;20403;-87
2021/06/11 00:18:37;;;;;;;41.50;24.60;;;;;;;;;;2119195;24;20607;31
2021/06/11 00:19:39;;;;;;;37.67;22.88;;;;;;;;;;1430738;41;20487;-90
2021/06/11 00:20:41;;;;;;;40.60;23.95;;;;;;;;;;1430591;41;20494;-87
2021/06/11 00:21:43;;;;;;;36.47;22.85;;;;;;;;;;1434566;41;20426;-88
2021/06/11 00:22:46;;;;;;;38.63;24.35;;;;;;;;;;1437703;41;20408;-87
2021/06/11 00:24:57;;;;;;;37.95;25.33;;;;;;;;;;1498707;24;20451;31
2021/06/11 00:25:59;;;;;;;42.10;25.70;;;;;;;;;;1440615;41;20437;-87
2021/06/11 00:27:00;;;;;;;37.17;24.98;;;;;;;;;;1439084;41;20428;-88
2021/06/11 00:28:05;;;;;;;39.08;26.08;;;;;;;;;;1434886;41;20433;-87
2021/06/11 00:29:10;;;;;;;38.78;25.92;;;;;;;;;;1439616;41;20525;-89
2021/06/11 00:30:12;;;;;;;38.80;25.07;;;;;;;;;;1439289;41;20479;-90
2021/06/11 00:31:16;;;;;;;37.13;25.08;;;;;;;;;;1439670;41;20489;-88
2021/06/11 00:32:20;;;;;;;36.20;25.15;;;;;;;;;;1435925;41;20475;-88
2021/06/11 00:33:22;;;;;;;39.35;24.45;;;;;;;;;;1438169;41;20433;-88
2021/06/11 00:34:23;;;;;;;38.92;25.95;;;;;;;;;;1436960;41;20786;-88
2021/06/11 00:47:11;;;;;;;34.17;23.75;;;;;;;;;;1441605;41;20445;-92
2021/06/11 00:48:16;;;;;;;32.10;22.83;;;;;;;;;;1476143;24;20519;-90
2021/06/11 00:49:35;;;;;;;33.58;24.33;;;;;;;;;;1674977;24;20455;31
2021/06/11 00:50:37;;;;;;;32.47;23.90;;;;;;;;;;1434830;41;20455;-87
2021/06/11 00:51:40;;;;;;;33.15;24.33;;;;;;;;;;2026962;24;20708;-88
2021/06/11 00:52:42;;;;;;;33.95;23.63;;;;;;;;;;1438177;41;20425;-89
2021/06/11 00:53:45;;;;;;;32.47;23.43;;;;;;;;;;1445333;41;20493;-91
2021/06/11 00:54:47;;;;;;;32.25;23.83;;;;;;;;;;1439806;41;20413;-91
2021/06/11 00:55:50;;;;;;;28.92;22.48;;;;;;;;;;1434985;41;20423;-89
2021/06/11 00:56:53;;;;;;;29.42;22.40;;;;;;;;;;1438657;41;20481;-89
2021/06/11 00:57:57;;;;;;;29.27;22.30;;;;;;;;;;1441893;41;21186;-89
2021/06/11 00:58:58;;;;;;;26.08;20.75;;;;;;;;;;1442564;41;20439;-89
2021/06/11 01:00:00;;;;;;;27.38;21.33;;;;;;;;;;1446444;41;20426;-90
2021/06/11 01:01:02;;;;;;;28.73;22.58;;;;;;;;;;1443767;41;20405;-90
2021/06/11 01:03:12;;;;;;;27.23;20.67;;;;;;;;;;2057384;23;896297;-93
2021/06/11 01:04:15;;;;;;;27.85;21.08;;;;;;;;;;1439857;41;20470;-91
2021/06/11 01:05:17;;;;;;;27.95;21.85;;;;;;;;;;1436150;41;20469;-92
2021/06/11 01:06:20;;;;;;;26.63;21.30;;;;;;;;;;1438732;41;20486;-90
2021/06/11 01:07:24;;;;;;;27.70;21.98;;;;;;;;;;1441846;41;20414;-89
2021/06/11 01:08:26;;;;;;;26.08;21.17;;;;;;;;;;1438784;41;20423;-89
2021/06/11 01:09:31;;;;;;;27.17;21.27;;;;;;;;;;1437467;41;20423;-90
2021/06/11 01:10:34;;;;;;;26.67;21.93;;;;;;;;;;1431261;41;20589;-91
2021/06/11 01:11:40;;;;;;;25.92;20.80;;;;;;;;;;1432302;41;20430;-90
2021/06/11 01:12:47;;;;;;;28.38;21.92;;;;;;;;;;1441659;41;20427;-92
2021/06/11 01:13:51;;;;;;;27.23;21.23;;;;;;;;;;1438630;41;20413;-85
2021/06/11 01:14:53;;;;;;;29.75;22.63;;;;;;;;;;1437305;41;21228;-86
2021/06/11 01:15:55;;;;;;;29.17;22.33;;;;;;;;;;1444071;41;20433;-90
2021/06/11 01:16:57;;;;;;;32.15;23.00;;;;;;;;;;1439294;41;20427;-88
2021/06/11 01:17:59;;;;;;;29.25;22.95;;;;;;;;;;1438298;41;20427;-91
2021/06/11 01:19:02;;;;;;;29.92;22.88;;;;;;;;;;1445090;41;20437;-91
2021/06/11 01:20:08;;;;;;;28.90;21.90;;;;;;;;;;1440310;41;20419;-89
2021/06/11 01:21:11;;;;;;;26.90;21.30;;;;;;;;;;1437025;41;20436;-91
2021/06/11 01:22:37;;;;;;;30.33;22.13;;;;;;;;;;1435681;41;20510;-89
2021/06/11 01:23:51;;;;;;;29.17;22.83;;;;;;;;;;1673709;24;20444;-90
2021/06/11 01:25:07;;;;;;;25.10;20.43;;;;;;;;;;1441078;41;20410;-89
2021/06/11 01:26:26;;;;;;;36.25;25.20;;;;;;;;;;1439067;41;20436;-89
2021/06/11 01:27:29;;;;;;;36.65;24.80;;;;;;;;;;1443150;41;20430;-89
2021/06/11 01:28:31;;;;;;;37.08;25.55;;;;;;;;;;1438340;41;20439;-93
2021/06/11 01:29:34;;;;;;;39.42;24.38;;;;;;;;;;1434832;41;20429;-90
2021/06/11 01:30:36;;;;;;;37.53;25.20;;;;;;;;;;1439259;41;20430;-90
2021/06/11 01:31:44;;;;;;;36.47;24.30;;;;;;;;;;1439141;41;20538;-92
2021/06/11 01:32:57;;;;;;;35.80;24.05;;;;;;;;;;2081146;23;21574;31
2021/06/11 01:34:12;;;;;;;37.35;24.42;;;;;;;;;;1508773;24;20478;-89
2021/06/11 01:38:21;;;;;;;31.25;22.38;;;;;;;;;;1921634;24;20441;-88
2021/06/11 01:39:31;;;;;;;32.30;22.92;;;;;;;;;;1634547;24;20445;-93
2021/06/11 01:40:43;;;;;;;35.22;24.10;;;;;;;;;;1757701;24;20454;-89
2021/06/11 01:41:46;;;;;;;34.08;24.25;;;;;;;;;;1474016;24;20598;-90
2021/06/11 01:43:01;;;;;;;;;;;;;;;;;;;;;
2021/06/11 01:46:34;;;;;;;33.20;22.75;;;;;;;;;;2128029;23;20367;-88
2021/06/11 01:47:42;;;;;;;42.42;26.63;;;;;;;;;;1596534;24;20375;-88
2021/06/11 01:48:47;;;;;;;40.80;26.77;;;;;;;;;;1730686;24;21330;-91
2021/06/11 01:49:54;;;;;;;38.23;25.37;;;;;;;;;;1435246;41;20662;-88
2021/06/11 01:51:00;;;;;;;44.00;27.23;;;;;;;;;;1432629;41;20407;-90
2021/06/11 01:52:05;;;;;;;40.42;25.20;;;;;;;;;;1434982;41;20423;-90
2021/06/11 01:53:15;;;;;;;43.03;26.83;;;;;;;;;;1440637;41;20427;-88
2021/06/11 01:54:19;;;;;;;35.10;24.35;;;;;;;;;;1441337;41;20541;-89
2021/06/11 01:55:23;;;;;;;36.60;25.05;;;;;;;;;;1436095;41;20411;-91
2021/06/11 01:56:29;;;;;;;37.40;25.45;;;;;;;;;;1473329;23;20477;-88
2021/06/11 01:57:33;;;;;;;40.20;25.40;;;;;;;;;;1438695;41;20578;-91
2021/06/11 01:58:35;;;;;;;37.80;24.90;;;;;;;;;;1601622;24;20446;-90
2021/06/11 02:01:04;;;;;;;37.83;25.63;;;;;;;;;;2322824;24;20372;-88
2021/06/11 02:02:11;;;;;;;35.85;24.05;;;;;;;;;;1439504;41;20428;-86
2021/06/11 02:03:16;;;;;;;34.37;24.80;;;;;;;;;;1440319;41;20680;-89
2021/06/11 02:04:19;;;;;;;33.93;23.27;;;;;;;;;;1472601;24;20512;-90
2021/06/11 02:05:23;;;;;;;34.80;24.95;;;;;;;;;;1441215;41;20424;-92
2021/06/11 02:06:26;;;;;;;34.80;24.35;;;;;;;;;;1438364;41;20430;-89
2021/06/11 02:07:29;;;;;;;34.63;24.25;;;;;;;;;;1472193;24;20437;-86
2021/06/11 02:08:34;;;;;;;34.28;24.17;;;;;;;;;;1438894;41;20451;-91
2021/06/11 02:09:36;;;;;;;33.13;23.27;;;;;;;;;;1438507;41;20507;-91
2021/06/11 02:10:38;;;;;;;32.30;23.17;;;;;;;;;;1679975;24;20609;-88
2021/06/11 02:11:42;;;;;;;35.05;24.15;;;;;;;;;;1745410;24;20505;-87
2021/06/11 02:13:30;;;;;;;31.42;22.92;;;;;;;;;;1949676;24;20428;31
2021/06/11 02:14:48;;;;;;;;;;;;;;;;;;;;;
2021/06/11 02:17:08;;;;;;;37.40;25.55;;;;;;;;;;1972144;24;20464;-89
2021/06/11 02:18:12;;;;;;;40.08;27.17;;;;;;;;;;1436503;41;20394;-86
2021/06/11 02:19:21;;;;;;;38.03;26.98;;;;;;;;;;1433501;41;20660;-87
2021/06/11 02:20:26;;;;;;;41.10;28.38;;;;;;;;;;1441044;41;20417;-87
2021/06/11 02:23:54;;;;;;;41.08;28.17;;;;;;;;;;1734802;23;20498;-88
2021/06/11 02:24:57;;;;;;;43.17;28.70;;;;;;;;;;1438493;41;20457;-87
2021/06/11 02:26:04;;;;;;;42.50;27.60;;;;;;;;;;1434916;41;20415;-91
2021/06/11 02:27:20;;;;;;;39.92;27.33;;;;;;;;;;1717307;24;20459;31
2021/06/11 02:28:26;;;;;;;43.60;28.70;;;;;;;;;;1463373;24;21177;-89
2021/06/11 02:29:29;;;;;;;48.22;30.92;;;;;;;;;;1597929;24;20648;-89
2021/06/11 02:34:07;;;;;;;57.05;35.58;;;;;;;;;;2401377;24;20529;31
2021/06/11 02:35:23;;;;;;;57.50;36.05;;;;;;;;;;1441082;41;20441;-87
2021/06/11 02:36:33;;;;;;;58.22;36.53;;;;;;;;;;1441715;41;20407;-87
2021/06/11 02:38:53;;;;;;;58.50;37.58;;;;;;;;;;1904562;24;20533;-87
2021/06/11 02:41:14;;;;;;;60.30;38.03;;;;;;;;;;1537489;23;20428;-87
2021/06/11 02:42:19;;;;;;;59.22;37.35;;;;;;;;;;1505221;24;20465;-89
2021/06/11 02:44:47;;;;;;;58.80;37.42;;;;;;;;;;1716454;23;20437;-88
2021/06/11 02:45:53;;;;;;;53.20;35.83;;;;;;;;;;1437088;41;20551;-87
2021/06/11 02:47:03;;;;;;;53.78;35.63;;;;;;;;;;1438904;41;20435;-86
2021/06/11 02:48:22;;;;;;;55.33;36.17;;;;;;;;;;1567508;24;20439;-87
2021/06/11 02:49:30;;;;;;;49.25;35.10;;;;;;;;;;1435733;41;20433;-88
2021/06/11 02:50:42;;;;;;;49.08;33.88;;;;;;;;;;1435781;41;20416;-87
2021/06/11 02:51:50;;;;;;;47.22;32.88;;;;;;;;;;1828539;24;20534;-88
2021/06/11 02:52:57;;;;;;;47.75;34.28;;;;;;;;;;1573206;23;20404;-89
2021/06/11 02:54:04;;;;;;;50.55;34.78;;;;;;;;;;1432172;41;21194;-89
2021/06/11 02:55:10;;;;;;;51.63;35.60;;;;;;;;;;1430982;41;20432;-90
2021/06/11 02:57:53;;;;;;;53.13;36.13;;;;;;;;;;2014964;24;20385;-88
2021/06/11 03:00:41;;;;;;;53.92;36.88;;;;;;;;;;1507394;24;20493;-89
2021/06/11 03:02:10;;;;;;;54.42;39.00;;;;;;;;;;1634066;24;20425;-88
2021/06/11 03:03:23;;;;;;;51.17;36.83;;;;;;;;;;1729063;24;21721;-90
2021/06/11 03:04:31;;;;;;;54.30;38.00;;;;;;;;;;1803318;24;20451;-88
2021/06/11 03:05:53;;;;;;;59.67;40.88;;;;;;;;;;1861019;24;20885;31
2021/06/11 03:06:55;;;;;;;58.95;41.20;;;;;;;;;;1427282;41;20451;-89
2021/06/11 03:08:05;;;;;;;58.80;41.85;;;;;;;;;;1429041;41;20413;-90
2021/06/11 03:09:10;;;;;;;61.47;42.08;;;;;;;;;;1433130;41;20411;-91
2021/06/11 03:10:12;;;;;;;58.08;42.45;;;;;;;;;;1427757;41;20421;-88
2021/06/11 03:11:30;;;;;;;59.55;41.80;;;;;;;;;;1433974;41;20579;-91
2021/06/11 03:12:34;;;;;;;57.65;41.63;;;;;;;;;;1431182;41;20440;-89
2021/06/11 03:13:41;;;;;;;53.65;40.70;;;;;;;;;;1433179;41;20426;-89
2021/06/11 03:14:45;;;;;;;56.97;42.08;;;;;;;;;;1433462;41;20431;-90
2021/06/11 03:15:49;;;;;;;52.60;40.03;;;;;;;;;;1432738;41;20439;-88
2021/06/11 03:17:02;;;;;;;55.10;40.80;;;;;;;;;;1434912;41;20439;-88
2021/06/11 03:21:50;;;;;;;59.85;43.30;;;;;;;;;;2290178;24;21526;-90
2021/06/11 03:23:14;;;;;;;61.03;42.40;;;;;;;;;;1434703;41;20423;-90
2021/06/11 03:24:25;;;;;;;57.83;40.83;;;;;;;;;;1433137;41;20423;-92
2021/06/11 03:25:44;;;;;;;59.28;41.85;;;;;;;;;;1431325;41;20443;-89
2021/06/11 03:26:51;;;;;;;56.38;40.28;;;;;;;;;;1503979;24;20384;-89
2021/06/11 03:27:57;;;;;;;57.78;39.85;;;;;;;;;;1438201;41;20439;-89
2021/06/11 03:29:02;;;;;;;53.80;36.08;;;;;;;;;;1438017;41;20417;-86
2021/06/11 03:30:15;;;;;;;49.28;35.10;;;;;;;;;;1432820;41;20434;-92
2021/06/11 03:31:39;;;;;;;44.47;33.40;;;;;;;;;;1437022;41;20463;-88
2021/06/11 03:32:50;;;;;;;41.92;31.17;;;;;;;;;;1431826;41;20440;-92
2021/06/11 03:34:00;;;;;;;37.33;28.85;;;;;;;;;;1431360;41;20438;-90
2021/06/11 03:35:05;;;;;;;33.30;26.75;;;;;;;;;;1434391;41;20433;-87
2021/06/11 03:36:23;;;;;;;31.60;25.00;;;;;;;;;;1438029;41;20429;-90
2021/06/11 03:37:28;;;;;;;32.55;24.15;;;;;;;;;;1433323;41;20905;-90
2021/06/11 03:38:31;;;;;;;30.30;22.80;;;;;;;;;;1433074;41;20559;-89
2021/06/11 03:39:39;;;;;;;26.90;22.42;;;;;;;;;;1434180;41;21152;-87
2021/06/11 03:40:43;;;;;;;26.75;23.00;;;;;;;;;;1436313;41;20436;-91
2021/06/11 03:41:46;;;;;;;28.27;22.35;;;;;;;;;;1432653;41;20423;-90
2021/06/11 03:42:49;;;;;;;29.50;24.20;;;;;;;;;;1431670;41;20407;-88
2021/06/11 03:43:53;;;;;;;25.90;22.08;;;;;;;;;;1430087;41;20440;-91
2021/06/11 03:44:58;;;;;;;27.98;22.20;;;;;;;;;;1431885;41;20430;-86
2021/06/11 03:46:02;;;;;;;25.17;21.65;;;;;;;;;;1431242;41;20474;-90
2021/06/11 03:47:04;;;;;;;24.77;21.65;;;;;;;;;;1427389;41;20428;-89
2021/06/11 03:48:09;;;;;;;27.70;21.83;;;;;;;;;;1430473;41;20521;-91
2021/06/11 03:49:11;;;;;;;24.52;21.83;;;;;;;;;;1436908;41;20405;-91
2021/06/11 03:50:19;;;;;;;25.20;21.10;;;;;;;;;;1438981;41;20425;-91
2021/06/11 03:51:25;;;;;;;25.05;21.30;;;;;;;;;;1435763;41;21102;-88
2021/06/11 03:52:34;;;;;;;28.67;23.05;;;;;;;;;;1431155;41;20436;-91
2021/06/11 03:54:51;;;;;;;25.63;22.73;;;;;;;;;;1752017;24;20507;-88
2021/06/11 03:57:41;;;;;;;26.42;23.17;;;;;;;;;;1777900;24;20495;31
2021/06/11 04:02:35;;;;;;;26.67;23.83;;;;;;;;;;1739477;23;20919;-88
2021/06/11 04:03:39;;;;;;;24.13;21.67;;;;;;;;;;1443622;41;20414;-88
2021/06/11 04:04:42;;;;;;;25.23;22.63;;;;;;;;;;1443637;41;20608;-89
2021/06/11 04:05:47;;;;;;;23.97;21.37;;;;;;;;;;1437178;41;20559;-92
2021/06/11 04:07:03;;;;;;;25.30;21.50;;;;;;;;;;1437814;41;20417;-87
2021/06/11 04:08:07;;;;;;;24.25;21.65;;;;;;;;;;1437989;41;20416;-90
2021/06/11 04:09:15;;;;;;;24.38;20.77;;;;;;;;;;1440284;41;20427;-89
2021/06/11 04:10:32;;;;;;;25.88;21.92;;;;;;;;;;1437718;41;20426;-90
2021/06/11 04:11:47;;;;;;;26.63;21.90;;;;;;;;;;1439699;41;20399;-89
2021/06/11 04:13:00;;;;;;;24.47;20.70;;;;;;;;;;1438626;41;20556;-91
2021/06/11 04:14:03;;;;;;;27.42;23.42;;;;;;;;;;1440370;41;20407;-88
2021/06/11 04:15:06;;;;;;;25.30;21.52;;;;;;;;;;1435931;41;20422;-88
2021/06/11 04:16:13;;;;;;;27.92;23.25;;;;;;;;;;1433200;41;20431;-89
2021/06/11 04:17:25;;;;;;;31.42;24.92;;;;;;;;;;1434905;41;20609;-88
2021/06/11 04:18:32;;;;;;;27.92;23.13;;;;;;;;;;1439015;41;20436;-87
2021/06/11 04:19:43;;;;;;;29.23;24.23;;;;;;;;;;1437759;41;20442;-87
2021/06/11 04:20:50;;;;;;;30.65;23.90;;;;;;;;;;1444104;41;20426;-90
2021/06/11 04:21:56;;;;;;;32.58;24.13;;;;;;;;;;1442500;41;20415;-91
2021/06/11 04:23:00;;;;;;;29.52;23.33;;;;;;;;;;1437013;41;20495;-87
2021/06/11 04:24:06;;;;;;;27.63;22.08;;;;;;;;;;1434636;41;20415;-87
2021/06/11 04:25:13;;;;;;;28.63;22.83;;;;;;;;;;1435297;41;20536;-90
2021/06/11 04:26:18;;;;;;;28.17;21.77;;;;;;;;;;1438357;41;20624;-88
2021/06/11 04:27:20;;;;;;;27.55;22.13;;;;;;;;;;1435362;41;20428;-89
2021/06/11 04:28:25;;;;;;;32.42;22.63;;;;;;;;;;1427703;41;20850;-90
2021/06/11 04:29:31;;;;;;;26.85;22.23;;;;;;;;;;1428968;41;20417;-89
2021/06/11 04:30:33;;;;;;;32.28;23.45;;;;;;;;;;1440993;41;20404;-89
2021/06/11 04:31:35;;;;;;;28.73;21.88;;;;;;;;;;1436595;41;20441;-87
2021/06/11 04:32:37;;;;;;;26.88;21.38;;;;;;;;;;1438006;41;20428;-89
2021/06/11 04:33:40;;;;;;;31.45;23.45;;;;;;;;;;1444276;41;20422;-89
2021/06/11 04:34:45;;;;;;;28.30;22.52;;;;;;;;;;1439129;41;20542;-89
2021/06/11 04:35:48;;;;;;;28.60;22.02;;;;;;;;;;1436129;41;20406;-91
2021/06/11 04:36:49;;;;;;;31.17;23.58;;;;;;;;;;1439612;41;20421;-89
2021/06/11 04:37:52;;;;;;;33.03;23.10;;;;;;;;;;1431538;41;20497;-90
2021/06/11 04:38:56;;;;;;;32.83;22.95;;;;;;;;;;1435714;41;20430;-91
2021/06/11 04:39:58;;;;;;;29.80;23.85;;;;;;;;;;1442789;41;20415;-88
2021/06/11 04:41:00;;;;;;;31.35;23.60;;;;;;;;;;1439586;41;20435;-86
2021/06/11 04:42:03;;;;;;;33.67;21.60;;;;;;;;;;1744830;24;20471;-89
2021/06/11 04:43:19;;;;;;;32.83;23.55;;;;;;;;;;1982084;24;20732;-88
2021/06/11 04:44:23;;;;;;;30.50;22.83;;;;;;;;;;1883310;24;20384;-89
2021/06/11 04:45:25;;;;;;;29.73;23.00;;;;;;;;;;1654743;24;22195;-87
2021/06/11 04:46:30;;;;;;;32.13;23.00;;;;;;;;;;1576073;23;20483;-88
2021/06/11 04:47:32;;;;;;;29.98;23.23;;;;;;;;;;1816679;24;20454;-89
2021/06/11 04:48:34;;;;;;;29.98;23.02;;;;;;;;;;1440491;41;20403;-87
2021/06/11 04:49:38;;;;;;;31.55;22.73;;;;;;;;;;1440966;41;20421;-87
2021/06/11 04:50:40;;;;;;;27.45;21.65;;;;;;;;;;1439341;41;20504;-88
2021/06/11 04:51:42;;;;;;;32.75;23.98;;;;;;;;;;1438047;41;20427;-89
2021/06/11 04:52:44;;;;;;;32.42;24.30;;;;;;;;;;1440407;41;20704;-89
2021/06/11 04:53:46;;;;;;;28.92;22.25;;;;;;;;;;1440844;41;20411;-89
2021/06/11 04:54:48;;;;;;;29.98;22.60;;;;;;;;;;1440609;41;20417;-89
2021/06/11 04:55:52;;;;;;;28.80;20.73;;;;;;;;;;1440177;41;20436;-88
2021/06/11 04:56:54;;;;;;;28.03;21.70;;;;;;;;;;1441553;41;20483;-92
2021/06/11 04:57:56;;;;;;;27.02;21.48;;;;;;;;;;1438706;41;20425;-91
2021/06/11 04:59:00;;;;;;;28.30;22.70;;;;;;;;;;1432299;41;20427;-88
2021/06/11 05:00:10;;;;;;;30.35;23.35;;;;;;;;;;1437964;41;20407;-86
2021/06/11 05:01:13;;;;;;;31.00;22.65;;;;;;;;;;1446628;41;20429;-86
2021/06/11 05:02:23;;;;;;;33.55;23.27;;;;;;;;;;1443921;41;20651;-88
2021/06/11 05:03:26;;;;;;;29.05;22.55;;;;;;;;;;1743312;23;20412;-88
2021/06/11 05:04:50;;;;;;;31.08;23.77;;;;;;;;;;1438625;41;20425;-86
2021/06/11 05:06:01;;;;;;;30.50;23.48;;;;;;;;;;1439543;41;20409;-88
2021/06/11 05:07:04;;;;;;;28.63;22.90;;;;;;;;;;1535812;24;20426;-86
2021/06/11 05:09:09;;;;;;;29.73;24.63;;;;;;;;;;1510699;24;20434;-88
2021/06/11 05:10:15;;;;;;;26.58;22.25;;;;;;;;;;1446108;41;20497;-86
2021/06/11 05:11:51;;;;;;;29.75;23.90;;;;;;;;;;1554582;23;20428;31
2021/06/11 05:22:57;;;;;;;25.00;21.70;;;;;;;;;;2283219;23;20350;-89
2021/06/11 05:24:01;;;;;;;25.67;21.15;;;;;;;;;;1440286;41;20534;-88
2021/06/11 05:29:10;;;;;;;22.25;18.50;;;;;;;;;;2340443;24;21505;-90
2021/06/11 05:30:13;;;;;;;20.90;17.92;;;;;;;;;;1438733;41;20484;-88
2021/06/11 05:31:20;;;;;;;21.17;18.38;;;;;;;;;;1439253;41;20464;-88
2021/06/11 05:32:23;;;;;;;19.08;17.08;;;;;;;;;;1432795;41;20435;-90
2021/06/11 05:33:25;;;;;;;20.83;18.23;;;;;;;;;;1429985;41;20416;-93
2021/06/11 05:34:27;;;;;;;24.60;18.67;;;;;;;;;;1434853;41;20414;-90
2021/06/11 05:35:32;;;;;;;24.65;19.38;;;;;;;;;;1467020;24;20432;-88
2021/06/11 05:36:35;;;;;;;22.20;19.00;;;;;;;;;;1427369;41;20426;-88
2021/06/11 05:38:45;;;;;;;21.05;17.42;;;;;;;;;;1752253;24;20464;-90
2021/06/11 05:39:50;;;;;;;20.75;18.40;;;;;;;;;;1848255;24;21054;-89
2021/06/11 05:40:54;;;;;;;22.88;19.00;;;;;;;;;;2103662;24;20603;-91
2021/06/11 05:41:59;;;;;;;20.75;17.75;;;;;;;;;;1437225;41;20440;-89
2021/06/11 05:43:01;;;;;;;21.07;18.27;;;;;;;;;;1437215;41;20910;-89
2021/06/11 05:44:05;;;;;;;23.40;18.17;;;;;;;;;;1438331;41;20524;-89
2021/06/11 05:45:07;;;;;;;19.02;17.02;;;;;;;;;;1442476;41;20424;-90
2021/06/11 05:46:11;;;;;;;20.98;17.70;;;;;;;;;;1445105;41;20453;-91
2021/06/11 05:48:24;;;;;;;18.80;15.93;;;;;;;;;;1844526;24;20444;-91
2021/06/11 05:49:26;;;;;;;17.77;15.23;;;;;;;;;;1434806;41;20442;-90
2021/06/11 05:50:29;;;;;;;17.08;15.07;;;;;;;;;;1434843;41;20450;-91
2021/06/11 05:51:32;;;;;;;19.55;15.75;;;;;;;;;;1434680;41;20484;-92
2021/06/11 05:52:35;;;;;;;18.13;15.15;;;;;;;;;;1438474;41;20433;-89
2021/06/11 05:53:37;;;;;;;20.13;16.20;;;;;;;;;;1432533;41;20456;-90
2021/06/11 05:54:40;;;;;;;21.38;16.60;;;;;;;;;;1432224;41;20452;-90
2021/06/11 05:55:42;;;;;;;17.48;15.43;;;;;;;;;;1435286;41;20415;-90
2021/06/11 05:56:45;;;;;;;20.90;16.55;;;;;;;;;;1433036;41;20411;-93
2021/06/11 05:57:48;;;;;;;18.00;16.15;;;;;;;;;;1433090;41;20507;-90
2021/06/11 05:58:50;;;;;;;18.15;15.50;;;;;;;;;;1436331;41;20445;-88
2021/06/11 05:59:55;;;;;;;18.50;15.50;;;;;;;;;;1439854;41;20421;-91
2021/06/11 06:00:59;;;;;;;17.52;15.50;;;;;;;;;;1436329;41;20431;-91
2021/06/11 06:02:02;;;;;;;17.27;14.95;;;;;;;;;;1431289;41;20928;-88
2021/06/11 06:03:05;;;;;;;19.92;16.13;;;;;;;;;;1436335;41;20494;-87
2021/06/11 06:04:08;;;;;;;21.50;17.45;;;;;;;;;;1441502;41;20419;-92
2021/06/11 06:05:13;;;;;;;18.50;16.60;;;;;;;;;;1432781;41;20430;-91
2021/06/11 06:06:18;;;;;;;19.85;16.33;;;;;;;;;;1435878;41;20439;-90
2021/06/11 06:09:40;;;;;;;17.77;15.50;;;;;;;;;;2344005;24;20352;-88
2021/06/11 06:10:45;;;;;;;20.08;15.90;;;;;;;;;;1440466;41;20477;-88
2021/06/11 06:11:47;;;;;;;15.27;13.65;;;;;;;;;;1964852;24;20787;-89
2021/06/11 06:12:49;;;;;;;16.58;13.57;;;;;;;;;;1635693;24;20454;-87
2021/06/11 06:13:51;;;;;;;15.80;13.73;;;;;;;;;;1441408;41;20435;-89
2021/06/11 06:14:53;;;;;;;16.42;14.10;;;;;;;;;;1440885;41;20401;-88
2021/06/11 06:15:57;;;;;;;16.65;14.35;;;;;;;;;;1576197;24;20435;-90
2021/06/11 06:16:59;;;;;;;18.73;15.05;;;;;;;;;;1433691;41;20443;-89
2021/06/11 06:18:02;;;;;;;17.20;14.10;;;;;;;;;;1441931;41;20421;-90
2021/06/11 06:19:04;;;;;;;18.50;14.95;;;;;;;;;;1438001;41;20482;-88
2021/06/11 06:20:09;;;;;;;18.10;15.10;;;;;;;;;;1438135;41;20430;-88
2021/06/11 06:21:14;;;;;;;15.38;13.75;;;;;;;;;;1442074;41;20424;-88
2021/06/11 06:23:29;;;;;;;13.93;12.20;;;;;;;;;;1436433;41;20417;-89
2021/06/11 06:24:31;;;;;;;14.25;11.88;;;;;;;;;;1536775;24;20762;-89
2021/06/11 06:26:52;;;;;;;12.32;11.02;;;;;;;;;;1434786;41;20538;-89
2021/06/11 06:27:55;;;;;;;14.15;11.75;;;;;;;;;;1437107;41;20437;-89
2021/06/11 06:30:48;;;;;;;11.80;10.25;;;;;;;;;;2204157;24;20538;-89
2021/06/11 06:34:11;;;;;;;10.45;9.38;;;;;;;;;;2080796;24;20449;31
2021/06/11 06:35:19;;;;;;;11.38;10.20;;;;;;;;;;1716616;24;21802;-89
2021/06/11 06:36:32;;;;;;;14.63;12.65;;;;;;;;;;1883049;24;21637;31
2021/06/11 06:37:34;;;;;;;15.45;13.48;;;;;;;;;;1429160;41;20431;-88
2021/06/11 06:38:37;;;;;;;15.55;13.13;;;;;;;;;;1427831;41;20420;-86
2021/06/11 06:39:44;;;;;;;17.23;13.32;;;;;;;;;;1428375;41;20428;-85
2021/06/11 06:40:48;;;;;;;17.15;15.13;;;;;;;;;;1423963;41;20413;-86
2021/06/11 06:41:55;;;;;;;15.68;14.02;;;;;;;;;;1423275;41;20485;-86
2021/06/11 06:42:57;;;;;;;19.95;14.77;;;;;;;;;;1419781;41;20411;-87
2021/06/11 06:43:58;;;;;;;15.93;14.25;;;;;;;;;;1419547;41;20423;-86
2021/06/11 06:45:12;;;;;;;15.05;13.52;;;;;;;;;;1422026;41;20510;-85
2021/06/11 06:46:21;;;;;;;14.52;13.07;;;;;;;;;;1423843;41;20425;-87
2021/06/11 06:47:25;;;;;;;14.80;13.32;;;;;;;;;;1426209;41;20558;-86
2021/06/11 06:48:30;;;;;;;14.27;12.53;;;;;;;;;;1426187;41;20566;-86
2021/06/11 06:49:33;;;;;;;16.80;13.90;;;;;;;;;;1426407;41;20511;-86
2021/06/11 06:50:34;;;;;;;16.67;14.10;;;;;;;;;;1425336;41;20480;-87
2021/06/11 06:51:37;;;;;;;17.02;14.90;;;;;;;;;;1422826;41;20503;-87
2021/06/11 06:52:39;;;;;;;17.05;15.25;;;;;;;;;;1422649;41;20422;-86
2021/06/11 06:53:41;;;;;;;18.50;15.95;;;;;;;;;;1426279;41;20466;-86
2021/06/11 06:54:47;;;;;;;16.75;14.95;;;;;;;;;;1427145;41;20475;-86
2021/06/11 06:55:49;;;;;;;16.05;14.35;;;;;;;;;;1428529;41;20521;-87
2021/06/11 06:56:53;;;;;;;16.48;14.82;;;;;;;;;;1427342;41;20520;-85
2021/06/11 06:57:58;;;;;;;18.55;15.55;;;;;;;;;;1427124;41;20421;-85
2021/06/11 06:58:59;;;;;;;19.52;15.88;;;;;;;;;;1426073;41;20429;-86
2021/06/11 07:00:02;;;;;;;17.42;15.55;;;;;;;;;;1426076;41;20445;-86
2021/06/11 07:01:05;;;;;;;14.05;12.55;;;;;;;;;;1427080;41;21102;-87
2021/06/11 07:02:10;;;;;;;13.88;12.48;;;;;;;;;;1425144;41;20485;-85
2021/06/11 07:03:14;;;;;;;12.97;11.40;;;;;;;;;;1421437;41;20463;-86
2021/06/11 07:04:17;;;;;;;13.00;11.70;;;;;;;;;;1422714;41;20446;-86
2021/06/11 07:05:19;;;;;;;13.02;11.80;;;;;;;;;;1422065;41;20433;-87
2021/06/11 07:06:23;;;;;;;14.80;11.43;;;;;;;;;;1422567;41;20848;-87
2021/06/11 07:07:25;;;;;;;15.45;12.52;;;;;;;;;;1422566;41;20423;-86
2021/06/11 07:08:31;;;;;;;14.05;12.55;;;;;;;;;;1423284;41;20430;-87
2021/06/11 07:09:35;;;;;;;14.77;12.98;;;;;;;;;;1426935;41;21041;-87
2021/06/11 07:10:40;;;;;;;15.10;13.00;;;;;;;;;;1426186;41;20558;-89
2021/06/11 07:11:42;;;;;;;16.85;13.30;;;;;;;;;;1423690;41;20426;-88
2021/06/11 07:12:44;;;;;;;14.70;12.48;;;;;;;;;;1423577;41;20429;-87
2021/06/11 07:13:47;;;;;;;13.43;12.02;;;;;;;;;;1426998;41;20439;-84
2021/06/11 07:14:49;;;;;;;13.02;11.70;;;;;;;;;;1425433;41;20416;-84
2021/06/11 07:15:53;;;;;;;12.73;10.63;;;;;;;;;;1424658;41;20428;-83
2021/06/11 07:16:55;;;;;;;13.50;11.75;;;;;;;;;;1425616;41;20433;-83
2021/06/11 07:17:57;;;;;;;16.70;11.45;;;;;;;;;;1426348;41;20443;-83
2021/06/11 07:19:00;;;;;;;12.88;11.57;;;;;;;;;;1427325;41;20420;-85
2021/06/11 07:20:04;;;;;;;14.27;11.68;;;;;;;;;;1428393;41;20927;-83
2021/06/11 07:21:07;;;;;;;12.93;11.63;;;;;;;;;;1427858;41;20432;-85
2021/06/11 07:22:10;;;;;;;16.60;11.52;;;;;;;;;;1429158;41;20432;-84
2021/06/11 07:23:13;;;;;;;13.00;10.75;;;;;;;;;;1425864;41;20645;-81
2021/06/11 07:24:15;;;;;;;13.57;10.65;;;;;;;;;;1423281;41;20423;-83
2021/06/11 07:25:17;;;;;;;13.02;10.38;;;;;;;;;;1427045;41;20426;-83
2021/06/11 07:26:19;;;;;;;13.38;10.40;;;;;;;;;;1423982;41;20876;-82
2021/06/11 07:27:22;;;;;;;13.23;11.18;;;;;;;;;;1427743;41;20416;-81
2021/06/11 07:28:26;;;;;;;12.13;10.32;;;;;;;;;;1423453;41;20931;-84
2021/06/11 07:29:28;;;;;;;12.77;10.30;;;;;;;;;;1423099;41;20551;-84
2021/06/11 07:30:30;;;;;;;10.98;9.88;;;;;;;;;;1422936;41;20434;-83
2021/06/11 07:31:32;;;;;;;9.90;9.00;;;;;;;;;;1422054;41;21726;-83
2021/06/11 07:32:34;;;;;;;10.40;9.23;;;;;;;;;;1426683;41;20723;-82
2021/06/11 07:33:36;;;;;;;9.77;8.77;;;;;;;;;;1426033;41;20493;-82
2021/06/11 07:34:38;;;;;;;9.50;8.50;;;;;;;;;;1426339;41;20436;-82
2021/06/11 07:35:40;;;;;;;12.30;10.13;;;;;;;;;;1421776;41;20434;-83
2021/06/11 07:36:42;;;;;;;10.90;9.02;;;;;;;;;;1422921;41;20566;-83
2021/06/11 07:37:44;;;;;;;14.15;9.57;;;;;;;;;;1426524;41;20688;-83
2021/06/11 07:38:46;;;;;;;10.60;9.45;;;;;;;;;;1417877;41;20915;-82
2021/06/11 07:39:48;;;;;;;11.27;9.82;;;;;;;;;;1417572;41;20882;-83
2021/06/11 07:40:52;;;;;;;10.52;9.52;;;;;;;;;;1418253;41;20543;-83
2021/06/11 07:41:54;;;;;;;10.07;9.07;;;;;;;;;;1421154;41;20496;-82
2021/06/11 07:42:56;;;;;;;10.07;8.65;;;;;;;;;;1422110;41;20511;-82
2021/06/11 07:43:58;;;;;;;11.73;8.98;;;;;;;;;;1422095;41;20426;-82